Time;durP1;ratioP1;P1;durP2;ratioP2;P2;SDS_P1;SDS_P2;PMS_P1;PMS_P2;Temp;Humidity;BMP_temperature;BMP_pressure;BME280_temperature;BME280_humidity;BME280_pressure;Samples;Min_cycle;Max_cycle;Signal;HPM_P1;HPM_P2
2021/07/31 00:02:21;;;;;;;19.08;13.40;;;;;;;24.21;68.16;100151.41;5058885;28;20048;-70
2021/07/31 00:05:07;;;;;;;15.70;12.25;;;;;;;24.47;67.54;100146.22;5057178;28;20045;-70
2021/07/31 00:07:52;;;;;;;19.48;13.85;;;;;;;24.54;67.14;100155.22;5053298;28;20041;-71
2021/07/31 00:10:37;;;;;;;20.20;14.18;;;;;;;24.46;67.36;100153.78;5058475;28;20045;-70
2021/07/31 00:13:23;;;;;;;17.42;13.48;;;;;;;24.47;67.13;100155.34;5053614;28;20045;-70
2021/07/31 00:16:08;;;;;;;20.45;14.70;;;;;;;24.42;67.31;100152.28;5053755;28;20041;-70
2021/07/31 00:18:53;;;;;;;23.80;17.15;;;;;;;24.20;68.26;100149.03;5059108;28;20033;-69
2021/07/31 00:21:37;;;;;;;23.98;15.23;;;;;;;24.03;69.55;100148.06;5057596;28;20045;-70
2021/07/31 00:24:23;;;;;;;29.80;15.95;;;;;;;23.74;70.60;100133.84;5054661;28;20041;-70
2021/07/31 00:27:10;;;;;;;23.83;16.85;;;;;;;23.80;70.38;100139.72;5057052;28;20049;-70
2021/07/31 00:29:55;;;;;;;32.75;18.27;;;;;;;23.55;71.52;100142.06;5059031;28;20033;-71
2021/07/31 00:32:42;;;;;;;23.50;19.05;;;;;;;23.02;73.78;100141.47;5054370;28;20041;-71
2021/07/31 00:35:27;;;;;;;24.35;17.83;;;;;;;23.18;73.18;100142.88;5055432;28;20037;-70
2021/07/31 00:38:12;;;;;;;30.35;18.70;;;;;;;23.48;71.84;100142.13;5061185;28;20041;-70
2021/07/31 00:40:57;;;;;;;23.98;15.18;;;;;;;23.86;71.04;100149.94;5053291;28;20040;-71
2021/07/31 00:43:42;;;;;;;23.75;14.70;;;;;;;24.45;68.61;100156.97;5054983;28;20049;-71
2021/07/31 00:46:27;;;;;;;19.35;15.55;;;;;;;24.67;67.71;100164.53;5053949;28;20041;-71
2021/07/31 00:49:12;;;;;;;19.38;13.95;;;;;;;24.93;66.48;100164.91;5049792;28;20429;-69
2021/07/31 00:51:58;;;;;;;19.15;14.48;;;;;;;25.07;65.83;100164.63;5058841;28;20402;-71
2021/07/31 00:54:43;;;;;;;19.02;14.23;;;;;;;25.06;65.65;100151.91;5053508;28;20041;-70
2021/07/31 00:57:32;;;;;;;24.58;17.30;;;;;;;24.66;66.21;100162.97;5037338;28;20033;-71
2021/07/31 01:00:46;;;;;;;20.98;15.55;;;;;;;24.70;66.98;100169.22;5047481;28;20037;-71
2021/07/31 01:03:31;;;;;;;21.52;16.13;;;;;;;24.81;66.41;100165.47;5055266;28;20036;-70
2021/07/31 01:06:17;;;;;;;21.88;15.75;;;;;;;24.92;65.96;100160.53;5049768;28;20044;-70
2021/07/31 01:09:02;;;;;;;28.67;18.95;;;;;;;24.34;66.83;100157.16;5045100;28;20041;-70
2021/07/31 01:11:47;;;;;;;26.65;18.33;;;;;;;24.18;67.54;100165.34;5042403;28;20037;-69
2021/07/31 01:14:32;;;;;;;23.85;17.92;;;;;;;24.11;68.08;100166.22;5050755;28;20037;-71
2021/07/31 01:17:18;;;;;;;27.38;18.13;;;;;;;24.31;67.45;100169.13;5043521;28;20045;-71
2021/07/31 01:20:03;;;;;;;30.33;21.25;;;;;;;23.78;69.20;100154.00;5059404;28;20036;-71
2021/07/31 01:22:51;;;;;;;29.23;19.85;;;;;;;23.62;69.77;100164.19;5041531;28;20037;-69
2021/07/31 01:25:36;;;;;;;32.90;22.88;;;;;;;23.41;70.51;100170.75;5055626;28;20033;-71
2021/07/31 01:28:23;;;;;;;32.03;22.92;;;;;;;23.01;72.70;100172.38;5055977;28;20033;-68
2021/07/31 01:31:07;;;;;;;33.15;24.42;;;;;;;23.04;72.73;100168.81;5050731;28;20044;-69
2021/07/31 01:33:53;;;;;;;30.63;22.17;;;;;;;23.55;70.80;100178.94;5039971;28;20040;-70
2021/07/31 01:36:39;;;;;;;27.65;20.08;;;;;;;23.92;69.96;100180.81;5037264;28;20037;-70
2021/07/31 01:39:25;;;;;;;28.15;19.50;;;;;;;24.21;68.76;100181.97;5054398;28;20037;-70
2021/07/31 01:42:11;;;;;;;22.83;19.05;;;;;;;24.48;67.88;100179.13;5057509;28;20041;-71
2021/07/31 01:44:57;;;;;;;25.40;17.35;;;;;;;24.41;67.78;100170.94;5056785;28;20498;-70
2021/07/31 01:47:43;;;;;;;27.58;20.40;;;;;;;24.48;67.00;100170.03;5051322;28;20041;-70
2021/07/31 01:50:28;;;;;;;30.92;22.00;;;;;;;24.33;67.63;100175.03;5038499;28;20037;-70
2021/07/31 01:53:14;;;;;;;38.65;22.85;;;;;;;24.31;67.94;100158.00;5038862;28;20041;-70
2021/07/31 01:56:01;;;;;;;39.95;24.40;;;;;;;24.42;67.64;100152.28;5047309;28;20044;-70
2021/07/31 01:58:48;;;;;;;40.30;25.42;;;;;;;24.15;68.63;100133.63;5056726;28;20402;-69
2021/07/31 02:01:33;;;;;;;35.05;24.60;;;;;;;24.24;68.20;100130.31;5041353;28;20044;-70
2021/07/31 02:04:20;;;;;;;29.63;20.27;;;;;;;24.50;67.83;100143.38;5037780;28;20045;-70
2021/07/31 02:07:24;;;;;;;28.27;20.92;;;;;;;24.82;66.29;100151.16;5048631;28;20040;-70
2021/07/31 02:10:10;;;;;;;30.65;20.80;;;;;;;24.76;66.37;100152.06;5046903;28;20033;-70
2021/07/31 02:12:55;;;;;;;29.98;20.98;;;;;;;25.13;65.06;100162.91;5051351;28;20483;-70
2021/07/31 02:15:46;;;;;;;31.02;22.25;;;;;;;24.90;65.72;100135.91;5040222;28;20033;-70
2021/07/31 02:18:35;;;;;;;32.28;24.60;;;;;;;24.66;66.71;100114.91;5039400;28;20041;-70
2021/07/31 02:21:23;;;;;;;29.33;20.38;;;;;;;24.53;67.54;100138.97;5043525;28;20036;-70
2021/07/31 02:24:41;;;;;;;29.83;22.48;;;;;;;24.64;66.86;100120.88;5020338;28;20036;-71
2021/07/31 02:27:45;;;;;;;32.70;24.23;;;;;;;24.42;67.85;100119.69;5052092;28;20040;-69
2021/07/31 02:30:30;;;;;;;31.85;22.02;;;;;;;24.41;68.10;100118.13;5057177;28;20045;-69
2021/07/31 02:33:17;;;;;;;32.92;23.25;;;;;;;24.37;68.11;100117.41;5052419;28;20044;-70
2021/07/31 02:36:04;;;;;;;30.23;22.23;;;;;;;24.39;68.20;100116.97;5027737;28;20037;-69
2021/07/31 02:39:20;;;;;;;35.15;21.98;;;;;;;24.52;67.69;100106.81;5050357;28;20049;-69
2021/07/31 02:42:06;;;;;;;32.53;23.75;;;;;;;24.46;67.79;100109.31;5057901;28;20037;-70
2021/07/31 02:45:04;;;;;;;32.58;22.80;;;;;;;24.40;68.41;100101.88;5057751;28;20049;-70
2021/07/31 02:47:51;;;;;;;34.67;23.20;;;;;;;24.23;68.83;100100.94;5032661;28;20037;-70
2021/07/31 02:50:36;;;;;;;32.97;23.63;;;;;;;24.35;68.51;100092.03;5043173;28;20040;-70
2021/07/31 02:53:45;;;;;;;32.53;22.48;;;;;;;24.42;68.39;100086.34;5051073;28;20033;-71
2021/07/31 02:56:30;;;;;;;30.88;23.15;;;;;;;24.43;68.26;100071.22;5037303;28;20053;-70
2021/07/31 02:59:16;;;;;;;31.65;25.70;;;;;;;24.32;68.56;100076.19;5056680;28;20048;-70
2021/07/31 03:02:02;;;;;;;36.65;27.17;;;;;;;24.24;68.56;100066.41;5054243;28;20053;-70
2021/07/31 03:04:46;;;;;;;37.28;26.90;;;;;;;24.14;68.92;100061.78;5052507;28;20402;-70
2021/07/31 03:07:36;;;;;;;43.95;26.65;;;;;;;24.01;69.56;100061.63;5056109;28;20046;-71
2021/07/31 03:10:21;;;;;;;36.80;25.52;;;;;;;23.96;69.85;100064.88;5053529;28;20033;-70
2021/07/31 03:13:07;;;;;;;33.22;23.95;;;;;;;24.04;69.82;100084.97;5052663;28;20041;-69
2021/07/31 03:15:53;;;;;;;45.38;28.60;;;;;;;23.97;69.54;100082.34;5036234;28;20406;-70
2021/07/31 03:18:38;;;;;;;37.30;26.23;;;;;;;23.90;69.98;100079.66;5052009;28;20053;-70
2021/07/31 03:21:30;;;;;;;30.25;21.80;;;;;;;23.97;70.12;100083.13;5036629;28;20041;-70
2021/07/31 03:24:34;;;;;;;33.28;24.17;;;;;;;23.99;70.11;100074.34;5053448;28;20041;-70
2021/07/31 03:27:20;;;;;;;39.22;26.42;;;;;;;23.84;70.27;100077.34;5038406;28;20037;-70
2021/07/31 03:30:24;;;;;;;36.72;26.50;;;;;;;23.39;71.65;100071.25;5049463;28;20033;-70
2021/07/31 03:33:23;;;;;;;42.28;27.67;;;;;;;23.49;71.55;100069.56;5052954;28;20041;-69
2021/07/31 03:36:08;;;;;;;34.65;25.52;;;;;;;23.65;71.45;100058.63;5051600;28;20037;-69
2021/07/31 03:38:56;;;;;;;35.60;27.15;;;;;;;23.60;71.30;100061.88;5054080;28;20057;-69
2021/07/31 03:41:41;;;;;;;34.70;26.30;;;;;;;23.59;71.04;100063.06;5051918;28;20028;-69
2021/07/31 03:44:28;;;;;;;41.38;27.80;;;;;;;23.59;70.83;100063.06;5052005;28;20410;-69
2021/07/31 03:47:12;;;;;;;35.75;25.85;;;;;;;23.58;71.31;100067.03;5048673;28;20041;-69
2021/07/31 03:49:57;;;;;;;46.63;28.60;;;;;;;23.53;71.98;100070.28;5042137;28;20041;-69
2021/07/31 03:52:42;;;;;;;37.08;26.20;;;;;;;23.62;71.29;100073.31;5051090;28;20033;-69
2021/07/31 03:55:27;;;;;;;44.83;25.35;;;;;;;23.67;71.29;100067.28;5038903;28;20045;-69
2021/07/31 03:58:12;;;;;;;44.20;26.83;;;;;;;23.75;70.47;100079.09;5037246;28;20041;-69
2021/07/31 04:00:58;;;;;;;31.70;22.90;;;;;;;23.92;70.42;100075.25;5050309;28;20041;-69
2021/07/31 04:03:44;;;;;;;32.42;23.70;;;;;;;24.05;69.57;100083.78;5040583;28;20041;-69
2021/07/31 04:06:31;;;;;;;38.78;23.80;;;;;;;24.17;69.21;100080.44;5045296;28;20283;-69
2021/07/31 04:09:47;;;;;;;33.83;23.58;;;;;;;24.35;68.11;100080.91;4988345;28;20042;-70
2021/07/31 04:13:05;;;;;;;32.22;23.73;;;;;;;24.32;68.02;100081.75;4989580;28;20041;-69
2021/07/31 04:16:16;;;;;;;32.20;24.50;;;;;;;23.99;70.14;100083.47;5049606;28;20049;-71
2021/07/31 04:19:02;;;;;;;31.70;20.55;;;;;;;24.11;69.22;100088.44;5037786;28;20045;-73
2021/07/31 04:21:53;;;;;;;32.55;22.63;;;;;;;24.31;68.65;100093.28;5049637;28;20041;-71
2021/07/31 04:24:39;;;;;;;30.65;22.90;;;;;;;24.41;68.39;100090.34;5052959;28;20053;-71
2021/07/31 04:27:25;;;;;;;38.45;23.80;;;;;;;24.43;68.12;100082.34;5053053;28;20033;-70
2021/07/31 04:30:10;;;;;;;32.38;22.70;;;;;;;24.42;68.60;100091.91;5051712;28;20445;-68
2021/07/31 04:32:55;;;;;;;27.67;22.00;;;;;;;24.40;69.44;100091.53;5055209;28;20041;-68
2021/07/31 04:35:41;;;;;;;33.42;22.60;;;;;;;24.48;69.07;100090.19;5053261;28;20044;-69
2021/07/31 04:38:26;;;;;;;58.20;29.77;;;;;;;24.54;68.20;100101.59;5052584;28;20041;-67
2021/07/31 04:41:10;;;;;;;31.95;24.38;;;;;;;24.42;68.26;100096.69;5050833;28;20041;-70
2021/07/31 04:43:56;;;;;;;44.33;24.35;;;;;;;24.20;69.35;100101.81;5056143;28;20049;-72
2021/07/31 04:46:41;;;;;;;36.47;23.88;;;;;;;24.14;69.82;100097.91;5052816;28;20386;-70
2021/07/31 04:49:27;;;;;;;37.42;27.13;;;;;;;23.93;71.01;100095.47;5053002;28;20037;-71
2021/07/31 04:52:12;;;;;;;41.25;26.70;;;;;;;23.82;71.21;100101.97;5055450;28;20040;-68
2021/07/31 04:54:57;;;;;;;34.05;22.70;;;;;;;23.99;70.37;100116.78;5055628;28;20036;-69
2021/07/31 04:57:42;;;;;;;41.03;26.40;;;;;;;24.12;70.83;100123.34;5053474;28;20414;-68
2021/07/31 05:00:27;;;;;;;36.95;26.45;;;;;;;24.00;71.64;100123.94;5041129;28;20037;-69
2021/07/31 05:03:13;;;;;;;34.33;25.58;;;;;;;24.18;70.86;100120.88;5055950;28;20409;-69
2021/07/31 05:05:58;;;;;;;32.53;24.08;;;;;;;24.26;70.53;100127.91;5051490;28;20414;-71
2021/07/31 05:08:43;;;;;;;42.97;28.02;;;;;;;24.55;69.20;100140.09;5055108;28;20395;-69
2021/07/31 05:11:28;;;;;;;39.15;26.58;;;;;;;24.52;69.59;100145.75;5055346;28;20037;-68
2021/07/31 05:14:14;;;;;;;40.22;24.77;;;;;;;24.73;67.99;100155.69;5052161;28;20044;-68
2021/07/31 05:16:59;;;;;;;37.28;24.75;;;;;;;24.83;67.60;100155.50;5049883;28;20049;-69
2021/07/31 05:19:46;;;;;;;42.30;23.13;;;;;;;25.34;65.79;100162.50;5054677;28;20037;-69
2021/07/31 05:22:31;;;;;;;40.42;23.60;;;;;;;25.51;65.02;100150.19;5052936;28;20037;-69
2021/07/31 05:25:16;;;;;;;34.50;24.25;;;;;;;25.52;64.76;100157.31;5057689;28;20041;-70
2021/07/31 05:28:01;;;;;;;43.03;25.00;;;;;;;25.34;65.69;100158.91;5053821;28;20045;-70
2021/07/31 05:30:47;;;;;;;38.67;26.42;;;;;;;25.33;65.38;100157.34;5055835;28;20036;-70
2021/07/31 05:33:33;;;;;;;38.60;24.90;;;;;;;25.84;64.00;100155.88;5057106;28;20506;-73
2021/07/31 05:36:18;;;;;;;42.70;24.95;;;;;;;25.72;63.71;100168.47;5055262;28;20486;-72
2021/07/31 05:39:03;;;;;;;38.47;27.55;;;;;;;24.80;67.99;100156.34;5050874;28;20048;-72
2021/07/31 05:41:48;;;;;;;49.05;25.35;;;;;;;25.14;67.22;100151.34;5059900;28;20041;-71
2021/07/31 05:44:34;;;;;;;42.85;25.15;;;;;;;25.61;64.85;100153.97;5059587;28;20037;-71
2021/07/31 05:47:23;;;;;;;34.42;25.13;;;;;;;25.97;63.81;100145.59;5047952;28;20041;-72
2021/07/31 05:50:09;;;;;;;41.63;25.85;;;;;;;26.40;62.32;100150.97;5057819;28;20029;-72
2021/07/31 05:52:54;;;;;;;36.30;25.33;;;;;;;26.36;62.51;100148.25;5059360;28;20048;-72
2021/07/31 05:55:39;;;;;;;36.60;24.77;;;;;;;26.71;61.16;100140.22;5054649;28;20045;-74
2021/07/31 05:58:24;;;;;;;33.78;25.10;;;;;;;26.93;60.57;100138.41;5058043;28;20486;-72
2021/07/31 06:01:10;;;;;;;37.13;25.67;;;;;;;27.12;59.79;100137.47;5058751;28;20434;-71
2021/07/31 06:03:55;;;;;;;36.50;24.75;;;;;;;27.29;59.34;100143.00;5052664;28;20041;-71
2021/07/31 06:06:40;;;;;;;32.47;24.27;;;;;;;27.41;58.80;100148.63;5052652;28;20037;-72
2021/07/31 06:09:25;;;;;;;33.25;25.30;;;;;;;27.50;58.31;100137.59;5053049;28;20715;-72
2021/07/31 06:12:10;;;;;;;36.20;24.90;;;;;;;27.69;58.02;100141.41;5050402;28;20502;-72
2021/07/31 06:14:55;;;;;;;38.03;26.00;;;;;;;27.87;56.99;100149.25;5050061;28;20041;-73
2021/07/31 06:17:41;;;;;;;31.55;24.65;;;;;;;27.85;57.04;100149.69;5054555;28;20045;-71
2021/07/31 06:20:26;;;;;;;37.65;25.67;;;;;;;27.78;57.43;100147.16;5052761;28;20040;-72
2021/07/31 06:23:11;;;;;;;36.70;24.75;;;;;;;27.70;57.15;100151.38;5052172;28;20401;-72
2021/07/31 06:26:00;;;;;;;35.03;22.27;;;;;;;27.78;54.92;100149.94;5053243;28;20049;-72
2021/07/31 06:28:45;;;;;;;26.30;20.05;;;;;;;28.03;54.38;100149.94;5053176;28;20041;-73
2021/07/31 06:31:31;;;;;;;27.10;18.75;;;;;;;28.24;54.07;100156.09;5051242;28;20246;-72
2021/07/31 06:34:16;;;;;;;30.10;20.98;;;;;;;27.72;53.67;100157.31;5055537;28;20041;-74
2021/07/31 06:37:01;;;;;;;32.60;20.48;;;;;;;27.69;55.39;100152.59;5047853;28;20236;-72
2021/07/31 06:39:47;;;;;;;28.13;20.27;;;;;;;27.26;56.53;100153.06;5050660;28;20040;-72
2021/07/31 06:42:31;;;;;;;29.77;21.15;;;;;;;27.75;55.21;100158.41;5053579;28;20044;-72
2021/07/31 06:45:16;;;;;;;28.67;19.75;;;;;;;27.22;56.01;100164.34;5051997;28;20044;-71
2021/07/31 06:48:01;;;;;;;30.98;22.25;;;;;;;27.00;57.35;100168.94;5052503;28;20045;-71
2021/07/31 06:50:46;;;;;;;28.98;20.10;;;;;;;27.40;56.55;100166.59;5056149;28;20036;-72
2021/07/31 06:53:31;;;;;;;32.47;21.80;;;;;;;27.47;55.64;100171.22;5056066;28;20041;-71
2021/07/31 06:56:17;;;;;;;31.90;22.67;;;;;;;27.74;55.73;100166.00;5036045;28;20045;-73
2021/07/31 06:59:03;;;;;;;27.17;20.48;;;;;;;27.88;55.50;100165.59;5050399;28;20049;-72
2021/07/31 07:01:49;;;;;;;29.60;19.05;;;;;;;29.52;50.80;100175.59;5050488;28;20041;-72
2021/07/31 07:04:34;;;;;;;24.85;19.00;;;;;;;30.78;47.19;100175.78;5044999;28;20045;-72
2021/07/31 07:07:19;;;;;;;27.40;19.00;;;;;;;30.38;48.56;100179.41;5051316;28;20029;-72
2021/07/31 07:10:05;;;;;;;27.10;20.52;;;;;;;31.44;44.63;100176.84;5053662;28;20045;-75
2021/07/31 07:12:50;;;;;;;24.33;18.35;;;;;;;32.99;41.54;100179.72;5053705;28;20045;-72
2021/07/31 07:15:37;;;;;;;28.52;19.00;;;;;;;32.65;41.41;100189.53;5051685;28;20044;-72
2021/07/31 07:18:22;;;;;;;24.27;15.98;;;;;;;34.24;38.40;100188.59;5051135;28;20036;-73
2021/07/31 07:21:10;;;;;;;26.33;17.05;;;;;;;33.31;40.38;100182.91;5055732;28;20495;-72
2021/07/31 07:23:55;;;;;;;25.80;17.30;;;;;;;34.47;38.03;100191.75;5050932;28;20040;-73
2021/07/31 07:26:41;;;;;;;22.48;14.73;;;;;;;35.50;35.73;100189.94;5048675;28;20326;-72
2021/07/31 07:29:26;;;;;;;25.15;13.23;;;;;;;36.21;34.37;100187.47;5038767;28;20044;-73
2021/07/31 07:32:11;;;;;;;22.05;14.27;;;;;;;37.18;32.77;100191.81;5049620;28;20486;-72
2021/07/31 07:34:56;;;;;;;24.83;14.20;;;;;;;37.93;31.23;100190.09;5035536;28;20044;-71
2021/07/31 07:37:41;;;;;;;25.63;13.90;;;;;;;38.03;30.64;100191.38;5050759;28;20037;-73
2021/07/31 07:40:26;;;;;;;28.02;14.20;;;;;;;36.78;32.21;100184.41;5056005;28;20049;-74
2021/07/31 07:43:12;;;;;;;21.60;13.07;;;;;;;38.19;31.29;100189.81;5051558;28;20033;-72
2021/07/31 07:45:57;;;;;;;27.30;13.90;;;;;;;38.57;30.30;100191.78;5050816;28;20041;-74
2021/07/31 07:48:46;;;;;;;20.42;13.63;;;;;;;39.68;28.72;100194.03;5054039;28;20492;-73
2021/07/31 07:51:30;;;;;;;24.27;12.88;;;;;;;38.85;29.56;100189.63;5054041;28;20040;-73
2021/07/31 07:54:16;;;;;;;22.52;13.20;;;;;;;38.64;29.09;100191.25;5051196;28;20479;-74
2021/07/31 07:57:05;;;;;;;19.63;11.85;;;;;;;37.43;31.88;100187.22;5049706;28;20045;-72
2021/07/31 07:59:50;;;;;;;14.85;11.13;;;;;;;38.67;30.13;100187.38;5049159;28;20406;-72
2021/07/31 08:02:35;;;;;;;18.70;12.93;;;;;;;38.17;30.23;100181.03;5050001;28;20049;-73
2021/07/31 08:05:20;;;;;;;21.05;12.52;;;;;;;38.08;30.94;100176.41;5054666;28;20479;-72
2021/07/31 08:08:08;;;;;;;20.10;13.32;;;;;;;38.85;29.29;100178.25;5054409;28;20049;-73
2021/07/31 08:10:53;;;;;;;15.48;10.23;;;;;;;39.55;28.04;100181.75;5049787;28;20033;-71
2021/07/31 08:13:38;;;;;;;22.48;13.43;;;;;;;37.84;31.11;100176.16;5052377;28;20044;-72
2021/07/31 08:16:24;;;;;;;18.67;13.55;;;;;;;38.86;30.03;100176.94;5054791;28;20037;-72
2021/07/31 08:19:10;;;;;;;21.73;15.27;;;;;;;38.25;32.17;100177.13;5056233;28;20041;-74
2021/07/31 08:21:55;;;;;;;21.05;14.40;;;;;;;39.71;27.68;100177.97;5058283;28;20045;-73
2021/07/31 08:24:40;;;;;;;23.48;13.75;;;;;;;41.04;26.81;100183.59;5042045;28;20041;-71
2021/07/31 08:27:25;;;;;;;18.75;13.07;;;;;;;39.65;27.70;100189.41;5056198;28;20037;-74
2021/07/31 08:30:11;;;;;;;18.15;12.60;;;;;;;37.86;30.50;100174.34;5054863;28;20045;-72
2021/07/31 08:32:55;;;;;;;18.13;13.38;;;;;;;36.58;33.10;100181.72;5052814;28;20041;-71
2021/07/31 08:35:41;;;;;;;19.17;13.60;;;;;;;36.69;33.30;100170.47;5053757;28;20053;-70
2021/07/31 08:38:25;;;;;;;19.80;14.55;;;;;;;36.29;33.80;100163.81;5056995;28;20518;-71
2021/07/31 08:41:14;;;;;;;22.08;14.18;;;;;;;39.01;29.86;100181.56;5055348;28;20502;-71
2021/07/31 08:44:02;;;;;;;22.17;13.70;;;;;;;38.92;29.74;100174.09;5037866;28;20426;-71
2021/07/31 08:46:50;;;;;;;21.95;13.07;;;;;;;37.89;31.48;100159.13;5054341;28;20041;-70
2021/07/31 08:49:39;;;;;;;27.80;13.63;;;;;;;39.46;29.06;100167.84;5054448;28;20037;-70
2021/07/31 08:52:28;;;;;;;17.70;14.90;;;;;;;36.00;34.69;100150.75;5054404;28;20033;-70
2021/07/31 08:55:12;;;;;;;21.13;13.00;;;;;;;38.40;30.93;100154.88;5055369;28;20037;-72
2021/07/31 08:58:01;;;;;;;23.50;12.93;;;;;;;36.02;34.47;100148.16;5061205;28;20654;-71
2021/07/31 09:00:45;;;;;;;20.88;13.00;;;;;;;34.57;37.56;100140.28;5045662;28;20041;-72
2021/07/31 09:03:45;;;;;;;25.65;13.63;;;;;;;33.89;39.36;100146.22;5045950;28;20045;-72
2021/07/31 09:06:31;;;;;;;18.58;11.32;;;;;;;33.33;40.72;100138.09;5034988;28;20037;-72
2021/07/31 09:09:27;;;;;;;16.40;13.18;;;;;;;32.87;42.03;100132.84;5039798;28;20053;-73
2021/07/31 09:12:12;;;;;;;19.80;11.77;;;;;;;32.60;42.63;100133.06;5041007;28;20387;-73
2021/07/31 09:14:57;;;;;;;24.05;12.30;;;;;;;32.31;43.09;100130.91;5040333;28;20049;-73
2021/07/31 09:17:42;;;;;;;15.88;12.15;;;;;;;32.09;43.75;100131.19;5040899;28;20223;-71
2021/07/31 09:20:27;;;;;;;17.30;12.85;;;;;;;31.90;44.67;100115.63;5040649;28;20045;-73
2021/07/31 09:23:12;;;;;;;24.80;13.88;;;;;;;31.76;44.94;100119.91;5040756;28;20502;-73
2021/07/31 09:26:01;;;;;;;21.95;12.20;;;;;;;31.64;45.42;100106.06;5051511;28;20041;-73
2021/07/31 09:28:56;;;;;;;18.52;12.82;;;;;;;31.57;45.73;100104.38;5056930;28;20041;-73
2021/07/31 09:31:45;;;;;;;18.52;10.65;;;;;;;31.53;45.82;100100.16;5047682;28;20037;-71
2021/07/31 09:34:32;;;;;;;22.38;12.63;;;;;;;31.44;46.08;100096.09;5053432;28;20494;-73
2021/07/31 09:37:28;;;;;;;16.67;12.52;;;;;;;31.38;46.56;100100.03;5050175;28;20037;-71
2021/07/31 09:40:14;;;;;;;14.88;9.63;;;;;;;31.31;46.36;100100.38;5053316;28;20041;-73
2021/07/31 09:43:17;;;;;;;15.00;9.35;;;;;;;31.31;46.52;100097.56;5055993;28;20055;-73
2021/07/31 09:46:02;;;;;;;14.82;9.45;;;;;;;31.33;46.25;100098.66;5053592;28;20048;-71
2021/07/31 09:49:00;;;;;;;34.65;8.93;;;;;;;31.40;46.29;100092.69;5057499;28;20059;-71
2021/07/31 09:51:47;;;;;;;14.98;8.82;;;;;;;31.33;47.04;100095.06;5051119;28;20047;-73
2021/07/31 09:54:31;;;;;;;14.50;8.05;;;;;;;31.36;46.78;100092.06;5050444;28;20048;-73
2021/07/31 09:57:17;;;;;;;15.25;8.27;;;;;;;31.31;45.98;100089.91;5049472;28;20521;-73
2021/07/31 10:00:04;;;;;;;15.40;7.05;;;;;;;31.46;45.99;100075.97;5051230;28;20059;-72
2021/07/31 10:02:53;;;;;;;13.10;7.47;;;;;;;31.48;46.05;100087.53;5048099;28;20517;-72
2021/07/31 10:05:40;;;;;;;10.85;7.00;;;;;;;31.59;45.04;100092.66;5055932;28;20537;-72
2021/07/31 10:08:25;;;;;;;12.48;7.20;;;;;;;31.53;44.56;100077.66;5055892;28;20048;-73
2021/07/31 10:11:11;;;;;;;12.90;7.78;;;;;;;31.58;45.72;100079.84;5044949;28;20052;-72
2021/07/31 10:13:58;;;;;;;12.98;7.35;;;;;;;31.65;44.51;100082.31;5059449;28;20047;-72
2021/07/31 10:16:47;;;;;;;11.20;7.35;;;;;;;31.64;43.92;100083.59;5053712;28;20044;-72
2021/07/31 10:19:45;;;;;;;10.35;7.15;;;;;;;31.74;44.00;100077.44;5050317;28;20536;-71
2021/07/31 10:22:44;;;;;;;14.27;6.53;;;;;;;31.85;43.16;100071.28;5053803;28;20048;-71
2021/07/31 10:25:29;;;;;;;11.70;7.15;;;;;;;31.73;43.12;100070.25;5057084;28;20040;-71
2021/07/31 10:28:28;;;;;;;13.07;7.53;;;;;;;31.68;43.93;100068.09;5059561;28;20059;-73
2021/07/31 10:31:33;;;;;;;14.80;7.75;;;;;;;31.71;44.55;100061.50;5057744;28;20044;-73
2021/07/31 10:34:43;;;;;;;13.32;7.05;;;;;;;31.69;43.95;100058.41;5059195;28;20047;-73
2021/07/31 10:37:27;;;;;;;11.20;7.38;;;;;;;31.66;43.62;100047.31;5041675;28;20115;-71
2021/07/31 10:40:25;;;;;;;14.20;8.20;;;;;;;31.72;44.13;100054.63;5052383;28;20060;-71
2021/07/31 10:43:11;;;;;;;11.18;7.20;;;;;;;31.70;45.05;100053.53;5058824;28;20040;-73
2021/07/31 10:46:26;;;;;;;13.75;6.70;;;;;;;31.83;45.31;100059.75;5052197;28;20509;-73
2021/07/31 10:49:37;;;;;;;19.08;7.65;;;;;;;31.96;43.09;100060.28;5046595;28;20052;-71
2021/07/31 10:53:04;;;;;;;10.10;6.65;;;;;;;31.82;44.42;100049.75;5057033;28;20048;-71
2021/07/31 10:55:52;;;;;;;17.23;7.70;;;;;;;31.74;45.02;100056.97;4973927;28;20401;-72
2021/07/31 10:58:37;;;;;;;10.55;6.45;;;;;;;31.88;44.61;100053.47;5056252;28;20063;-72
2021/07/31 11:01:23;;;;;;;11.57;6.65;;;;;;;32.03;44.56;100059.16;5053251;28;20044;-72
2021/07/31 11:04:08;;;;;;;11.60;6.03;;;;;;;32.05;42.53;100056.66;5052679;28;20052;-72
2021/07/31 11:07:24;;;;;;;14.13;5.53;;;;;;;32.04;41.00;100050.25;5052544;28;20072;-73
2021/07/31 11:10:48;;;;;;;9.70;6.68;;;;;;;31.93;41.33;100050.00;5058579;28;20135;-72
2021/07/31 11:13:33;;;;;;;12.05;6.28;;;;;;;31.98;42.08;100054.19;5048507;28;20040;-72
2021/07/31 11:16:20;;;;;;;11.55;5.60;;;;;;;32.04;41.46;100043.84;5053801;28;20051;-72
2021/07/31 11:19:05;;;;;;;6.70;5.05;;;;;;;32.07;39.61;100049.28;5058397;28;20064;-72
2021/07/31 11:21:52;;;;;;;8.10;5.00;;;;;;;32.26;39.65;100047.91;5041710;28;20051;-72
2021/07/31 11:24:37;;;;;;;12.90;5.63;;;;;;;32.19;39.45;100045.47;5056325;28;20048;-72
2021/07/31 11:27:22;;;;;;;9.23;5.93;;;;;;;32.16;40.03;100046.41;5051668;28;20410;-72
2021/07/31 11:30:07;;;;;;;11.32;6.45;;;;;;;32.13;39.59;100041.75;5054880;28;20051;-72
2021/07/31 11:32:52;;;;;;;11.50;5.43;;;;;;;32.13;39.91;100036.13;5058044;28;20051;-72
2021/07/31 11:35:37;;;;;;;8.23;4.80;;;;;;;32.22;39.02;100044.50;5051746;28;20048;-72
2021/07/31 15:22:17;;;;;;;6.43;3.67;;;;;;;31.91;37.04;99882.94;5129645;27;20426;-74
2021/07/31 15:25:03;;;;;;;7.95;3.78;;;;;;;31.83;37.63;99877.72;5110330;22;20063;-84
2021/07/31 15:27:47;;;;;;;9.63;4.50;;;;;;;31.88;38.76;99884.69;5082774;28;20052;-80
2021/07/31 15:30:32;;;;;;;10.82;3.97;;;;;;;31.86;38.95;99881.59;5084167;28;20155;-84
2021/07/31 15:33:20;;;;;;;9.82;4.55;;;;;;;31.89;38.49;99891.88;5078001;28;20417;-82
2021/07/31 15:36:05;;;;;;;12.07;4.57;;;;;;;31.86;37.97;99904.09;5080434;28;20047;-82
2021/07/31 15:38:51;;;;;;;10.35;3.67;;;;;;;31.80;38.33;99884.28;5079013;28;20047;-82
2021/07/31 15:41:36;;;;;;;11.88;3.80;;;;;;;31.79;39.05;99887.59;5073319;28;20052;-82
2021/07/31 15:44:21;;;;;;;6.60;3.60;;;;;;;31.74;38.52;99871.38;5080748;28;20043;-83
2021/07/31 15:47:05;;;;;;;8.50;3.83;;;;;;;31.74;37.93;99874.97;5058555;28;20052;-83
2021/07/31 15:49:51;;;;;;;9.77;4.53;;;;;;;31.73;36.83;99867.03;5077947;28;20040;-81
2021/07/31 15:52:37;;;;;;;8.48;3.28;;;;;;;31.72;37.18;99851.41;5080260;28;20059;-82
2021/07/31 15:55:22;;;;;;;6.47;3.30;;;;;;;31.75;37.27;99853.22;5078628;28;20055;-79
2021/07/31 15:58:07;;;;;;;21.58;3.97;;;;;;;31.76;37.82;99846.34;5076997;28;20043;-82
2021/07/31 16:00:51;;;;;;;8.38;3.38;;;;;;;31.73;37.66;99830.47;5076381;28;20044;-83
2021/07/31 16:03:36;;;;;;;5.50;3.17;;;;;;;31.73;37.63;99824.84;5078775;28;20051;-82
2021/07/31 16:06:20;;;;;;;6.95;3.58;;;;;;;31.72;36.68;99826.09;5079381;28;20047;-82
2021/07/31 16:09:06;;;;;;;6.93;3.35;;;;;;;31.68;36.55;99819.88;5072637;28;20052;-83
2021/07/31 16:11:51;;;;;;;106.65;14.43;;;;;;;31.69;36.33;99822.22;5079754;28;20489;-83
2021/07/31 16:14:36;;;;;;;35.28;7.80;;;;;;;31.68;35.83;99826.28;5079143;28;20067;-83
2021/07/31 16:17:21;;;;;;;9.68;4.75;;;;;;;31.66;36.30;99822.38;5078694;28;20051;-83
2021/07/31 16:20:06;;;;;;;10.52;3.97;;;;;;;31.65;36.92;99823.66;5078584;28;20048;-81
2021/07/31 16:22:51;;;;;;;7.20;3.33;;;;;;;31.61;36.54;99826.66;5066655;28;20048;-83
2021/07/31 16:25:36;;;;;;;9.73;3.72;;;;;;;31.54;36.94;99820.59;5064436;28;20493;-83
2021/07/31 16:28:20;;;;;;;12.93;4.20;;;;;;;31.59;37.21;99822.78;5069506;28;20044;-81
2021/07/31 16:31:05;;;;;;;8.40;3.55;;;;;;;31.56;37.95;99826.50;5062970;28;20047;-84